createdAt,value
2018-07-27T00:01:16.782Z,21.90
2018-07-27T00:03:45.890Z,21.36
2018-07-27T00:06:13.031Z,21.42
2018-07-27T00:08:40.140Z,21.33
2018-07-27T00:11:07.204Z,21.21
2018-07-27T00:13:34.296Z,20.96
2018-07-27T00:16:04.248Z,20.92
2018-07-27T00:18:37.566Z,20.86
2018-07-27T00:21:09.235Z,20.78
2018-07-27T00:23:38.256Z,21.26
2018-07-27T00:26:05.330Z,20.88
2018-07-27T00:28:32.404Z,20.78
2018-07-27T00:31:00.520Z,20.72
2018-07-27T00:33:27.624Z,20.56
2018-07-27T00:35:54.784Z,20.39
2018-07-27T00:38:22.807Z,20.36
2018-07-27T00:40:50.014Z,20.11
2018-07-27T00:43:17.143Z,20.15
2018-07-27T00:45:44.666Z,20.29
2018-07-27T00:48:16.806Z,20.75
2018-07-27T00:50:43.993Z,20.34
2018-07-27T00:53:11.112Z,20.33
2018-07-27T00:55:38.245Z,20.34
2018-07-27T00:58:08.536Z,20.40
2018-07-27T01:00:36.223Z,20.31
2018-07-27T01:03:05.409Z,20.90
2018-07-27T01:05:36.600Z,20.85
2018-07-27T01:08:05.520Z,20.82
2018-07-27T01:10:33.158Z,20.90
2018-07-27T01:13:02.251Z,20.12
2018-07-27T01:15:30.676Z,19.81
2018-07-27T01:18:03.928Z,19.62
2018-07-27T01:20:34.927Z,19.63
2018-07-27T01:23:02.027Z,20.15
2018-07-27T01:25:29.101Z,19.72
2018-07-27T01:27:57.239Z,20.35
2018-07-27T01:30:24.369Z,20.00
2018-07-27T01:32:51.469Z,19.88
2018-07-27T01:35:18.513Z,20.46
2018-07-27T01:37:45.604Z,20.67
2018-07-27T01:40:13.354Z,20.31
2018-07-27T01:42:40.437Z,19.33
2018-07-27T01:45:07.529Z,19.18
2018-07-27T01:47:35.428Z,19.43
2018-07-27T01:50:02.544Z,20.14
2018-07-27T01:52:30.390Z,19.49
2018-07-27T01:54:57.481Z,19.23
2018-07-27T01:57:24.515Z,19.08
2018-07-27T01:59:52.543Z,18.83
2018-07-27T02:02:19.705Z,18.97
2018-07-27T02:04:46.774Z,18.98
2018-07-27T02:07:15.977Z,19.49
2018-07-27T02:09:43.126Z,19.30
2018-07-27T02:12:10.258Z,19.33
2018-07-27T02:14:40.264Z,19.28
2018-07-27T02:17:07.409Z,19.15
2018-07-27T02:19:35.220Z,19.07
2018-07-27T02:22:02.441Z,19.44
2018-07-27T02:24:29.508Z,19.17
2018-07-27T02:26:59.968Z,19.08
2018-07-27T02:29:26.967Z,19.07
2018-07-27T02:31:53.980Z,19.21
2018-07-27T02:34:20.974Z,19.45
2018-07-27T02:36:48.043Z,19.31
2018-07-27T02:39:15.116Z,19.36
2018-07-27T02:41:42.855Z,19.29
2018-07-27T02:44:09.964Z,19.77
2018-07-27T02:46:36.972Z,19.58
2018-07-27T02:49:04.156Z,19.42
2018-07-27T02:51:31.231Z,19.86
2018-07-27T02:53:58.789Z,19.41
2018-07-27T02:56:25.939Z,19.39
2018-07-27T02:58:52.981Z,19.34
2018-07-27T03:01:20.007Z,19.13
2018-07-27T03:03:48.804Z,18.95
2018-07-27T03:06:17.982Z,19.54
2018-07-27T03:08:45.109Z,18.96
2018-07-27T03:11:12.271Z,19.37
2018-07-27T03:13:45.416Z,18.79
2018-07-27T03:16:18.653Z,18.58
2018-07-27T03:18:45.690Z,19.23
2018-07-27T03:21:13.450Z,18.56
2018-07-27T03:23:41.364Z,18.58
2018-07-27T03:26:08.468Z,18.52
2018-07-27T03:28:36.358Z,18.56
2018-07-27T03:31:05.489Z,18.54
2018-07-27T03:33:36.644Z,19.13
2018-07-27T03:36:05.281Z,18.56
2018-07-27T03:38:32.420Z,18.39
2018-07-27T03:40:59.788Z,18.35
2018-07-27T03:43:26.963Z,18.35
2018-07-27T03:45:56.937Z,18.07
2018-07-27T03:48:24.835Z,18.03
2018-07-27T03:50:52.468Z,18.51
2018-07-27T03:53:20.381Z,18.12
2018-07-27T03:55:52.059Z,18.19
2018-07-27T03:58:19.816Z,18.12
2018-07-27T04:00:49.946Z,18.14
2018-07-27T04:03:17.208Z,18.19
2018-07-27T04:05:44.264Z,18.20
2018-07-27T04:08:11.340Z,18.26
2018-07-27T04:10:38.419Z,18.37
2018-07-27T04:13:05.462Z,18.51
2018-07-27T04:15:32.554Z,18.54
2018-07-27T04:18:01.569Z,18.54
2018-07-27T04:20:29.081Z,18.54
2018-07-27T04:22:56.196Z,18.80
2018-07-27T04:25:23.269Z,19.08
2018-07-27T04:27:50.580Z,19.53
2018-07-27T04:30:17.685Z,19.76
2018-07-27T04:32:44.728Z,20.43
2018-07-27T04:35:12.018Z,21.34
2018-07-27T04:37:41.109Z,21.97
2018-07-27T04:40:08.424Z,22.56
2018-07-27T04:42:35.518Z,22.98
2018-07-27T04:45:02.586Z,23.40
2018-07-27T04:47:29.779Z,23.29
2018-07-27T04:49:56.907Z,23.48
2018-07-27T04:52:25.961Z,23.46
2018-07-27T04:54:52.985Z,23.64
2018-07-27T04:57:22.132Z,23.97
2018-07-27T04:59:56.258Z,23.80
2018-07-27T05:02:23.276Z,23.97
2018-07-27T05:04:50.325Z,23.53
2018-07-27T05:07:18.384Z,23.73
2018-07-27T05:09:45.483Z,23.04
2018-07-27T05:12:13.363Z,22.85
2018-07-27T05:14:40.376Z,23.21
2018-07-27T05:17:07.407Z,22.96
2018-07-27T05:19:34.496Z,23.10
2018-07-27T05:22:01.601Z,23.71
2018-07-27T05:24:28.792Z,23.92
2018-07-27T05:26:56.432Z,23.95
2018-07-27T05:29:23.611Z,23.88
2018-07-27T05:31:52.769Z,24.15
2018-07-27T05:34:20.885Z,24.29
2018-07-27T05:36:48.924Z,24.20
2018-07-27T05:39:20.356Z,24.37
2018-07-27T05:41:47.392Z,24.46
2018-07-27T05:44:14.460Z,24.43
2018-07-27T05:46:42.562Z,24.42
2018-07-27T05:49:09.692Z,24.87
2018-07-27T05:51:37.364Z,24.73
2018-07-27T05:54:04.471Z,24.49
2018-07-27T05:56:31.521Z,24.69
2018-07-27T05:58:58.700Z,24.70
2018-07-27T06:01:26.377Z,24.87
2018-07-27T06:03:53.664Z,25.08
2018-07-27T06:06:20.734Z,25.15
2018-07-27T06:08:48.360Z,25.12
2018-07-27T06:11:15.545Z,25.29
2018-07-27T06:13:43.659Z,25.60
2018-07-27T06:16:13.812Z,25.61
2018-07-27T06:18:41.453Z,25.63
2018-07-27T06:21:08.513Z,25.78
2018-07-27T06:23:36.520Z,25.79
2018-07-27T06:26:04.667Z,25.88
2018-07-27T06:28:36.624Z,25.63
2018-07-27T06:31:03.803Z,25.99
2018-07-27T06:33:31.085Z,26.21
2018-07-27T06:35:59.893Z,26.16
2018-07-27T06:38:28.041Z,26.18
2018-07-27T06:40:55.110Z,26.27
2018-07-27T06:43:22.240Z,26.59
2018-07-27T06:45:53.792Z,26.51
2018-07-27T06:48:21.419Z,26.99
2018-07-27T06:50:50.743Z,26.95
2018-07-27T06:53:18.206Z,27.15
2018-07-27T06:55:46.028Z,27.03
2018-07-27T06:58:14.146Z,27.05
2018-07-27T07:00:41.271Z,27.12
2018-07-27T07:03:08.356Z,27.00
2018-07-27T07:05:36.040Z,26.97
2018-07-27T07:08:03.130Z,27.32
2018-07-27T07:10:33.302Z,27.34
2018-07-27T07:13:01.019Z,27.31
2018-07-27T07:15:28.040Z,27.01
2018-07-27T07:17:55.288Z,27.04
2018-07-27T07:20:23.374Z,27.08
2018-07-27T07:22:50.417Z,27.03
2018-07-27T07:25:17.696Z,27.02
2018-07-27T07:27:44.666Z,26.95
2018-07-27T07:30:11.768Z,27.30
2018-07-27T07:32:39.000Z,27.15
2018-07-27T07:35:10.090Z,26.93
2018-07-27T07:37:38.199Z,27.37
2018-07-27T07:40:07.447Z,27.62
2018-07-27T07:42:34.548Z,27.97
2018-07-27T07:45:01.737Z,27.98
2018-07-27T07:47:28.754Z,27.83
2018-07-27T07:49:55.837Z,27.87
2018-07-27T07:52:22.893Z,27.89
2018-07-27T07:54:50.158Z,27.76
2018-07-27T07:57:20.345Z,27.78
2018-07-27T07:59:47.521Z,27.70
2018-07-27T08:02:16.522Z,27.98
2018-07-27T08:04:43.580Z,28.35
2018-07-27T08:07:10.759Z,28.39
2018-07-27T08:09:40.807Z,28.32
2018-07-27T08:12:07.968Z,28.51
2018-07-27T08:14:35.073Z,28.63
2018-07-27T08:17:03.344Z,28.87
2018-07-27T08:19:38.824Z,29.14
2018-07-27T08:22:08.962Z,29.01
2018-07-27T08:24:36.014Z,28.72
2018-07-27T08:27:05.163Z,28.78
2018-07-27T08:29:36.256Z,29.07
2018-07-27T08:32:03.717Z,29.14
2018-07-27T08:34:30.799Z,29.01
2018-07-27T08:36:58.022Z,29.44
2018-07-27T08:39:26.478Z,29.61
2018-07-27T08:41:54.664Z,29.74
2018-07-27T08:44:24.751Z,29.61
2018-07-27T08:46:52.028Z,29.44
2018-07-27T08:49:20.506Z,29.79
2018-07-27T08:51:49.663Z,29.81
2018-07-27T08:54:17.971Z,30.23
2018-07-27T08:56:48.276Z,30.86
2018-07-27T08:59:15.354Z,30.72
2018-07-27T09:01:42.480Z,30.38
2018-07-27T09:04:17.075Z,30.91
2018-07-27T09:06:45.095Z,30.90
2018-07-27T09:09:14.315Z,31.17
2018-07-27T09:11:50.287Z,31.36
2018-07-27T09:14:19.112Z,31.40
2018-07-27T09:16:46.174Z,31.76
2018-07-27T09:19:13.269Z,31.93
2018-07-27T09:21:41.841Z,31.28
2018-07-27T09:24:09.624Z,31.46
2018-07-27T09:26:37.579Z,31.68
2018-07-27T09:29:06.630Z,31.94
2018-07-27T09:31:34.633Z,31.36
2018-07-27T09:34:01.774Z,32.23
2018-07-27T09:36:28.788Z,31.92
2018-07-27T09:38:55.859Z,32.31
2018-07-27T09:41:22.961Z,32.39
2018-07-27T09:43:50.047Z,32.01
2018-07-27T09:46:18.096Z,32.68
2018-07-27T09:48:50.772Z,32.98
2018-07-27T09:51:20.628Z,33.27
2018-07-27T09:53:47.826Z,33.25
2018-07-27T09:56:14.927Z,33.26
2018-07-27T09:58:42.062Z,33.19
2018-07-27T10:01:15.122Z,33.80
2018-07-27T10:03:43.669Z,33.17
2018-07-27T10:06:16.957Z,33.20
2018-07-27T10:08:44.006Z,33.21
2018-07-27T10:11:14.724Z,32.77
2018-07-27T10:13:45.674Z,33.13
2018-07-27T10:16:12.940Z,32.53
2018-07-27T10:18:40.011Z,32.60
2018-07-27T10:21:07.659Z,32.82
2018-07-27T10:23:34.875Z,33.23
2018-07-27T10:26:05.169Z,32.98
2018-07-27T10:28:32.365Z,33.05
2018-07-27T10:30:59.477Z,32.92
2018-07-27T10:33:27.616Z,33.07
2018-07-27T10:35:54.847Z,32.57
2018-07-27T10:38:22.024Z,32.22
2018-07-27T10:40:49.136Z,32.64
2018-07-27T10:43:16.187Z,32.84
2018-07-27T10:45:43.312Z,33.35
2018-07-27T10:48:10.520Z,33.14
2018-07-27T10:50:37.767Z,33.19
2018-07-27T10:53:05.880Z,32.83
2018-07-27T10:55:36.726Z,32.87
2018-07-27T10:58:03.779Z,32.82
2018-07-27T11:00:40.545Z,33.38
2018-07-27T11:03:09.058Z,34.11
2018-07-27T11:05:37.290Z,34.73
2018-07-27T11:08:07.683Z,34.61
2018-07-27T11:10:39.410Z,33.75
2018-07-27T11:13:06.762Z,34.05
2018-07-27T11:15:34.367Z,33.67
2018-07-27T11:18:02.484Z,34.20
2018-07-27T11:20:29.597Z,34.04
2018-07-27T11:22:56.752Z,34.36
2018-07-27T11:25:23.856Z,34.91
2018-07-27T11:27:52.085Z,34.29
2018-07-27T11:30:19.215Z,34.12
2018-07-27T11:32:46.479Z,34.74
2018-07-27T11:35:20.780Z,34.31
2018-07-27T11:37:56.196Z,34.13
2018-07-27T11:40:23.395Z,34.23
2018-07-27T11:42:53.282Z,33.59
2018-07-27T11:45:21.304Z,33.65
2018-07-27T11:47:48.406Z,34.07
2018-07-27T11:50:22.367Z,34.26
2018-07-27T11:52:51.343Z,34.41
2018-07-27T11:55:18.620Z,34.14
2018-07-27T11:57:45.887Z,33.80
2018-07-27T12:00:13.761Z,34.03
2018-07-27T12:02:40.941Z,34.70
2018-07-27T12:05:11.745Z,34.38
2018-07-27T12:07:39.830Z,34.11
2018-07-27T12:10:10.414Z,34.17
2018-07-27T12:12:37.454Z,34.32
2018-07-27T12:15:04.990Z,34.15
2018-07-27T12:17:31.911Z,34.01
2018-07-27T12:20:00.135Z,34.20
2018-07-27T12:24:54.611Z,34.40
2018-07-27T12:27:25.424Z,34.50
2018-07-27T12:29:55.585Z,34.51
2018-07-27T12:32:23.815Z,34.42
2018-07-27T12:34:50.927Z,34.59
2018-07-27T12:37:19.436Z,34.87
2018-07-27T12:39:46.599Z,34.63
2018-07-27T12:42:13.804Z,34.64
2018-07-27T12:44:40.971Z,35.02
2018-07-27T12:47:10.611Z,34.61
2018-07-27T12:49:37.792Z,34.61
2018-07-27T12:52:05.141Z,34.51
2018-07-27T12:54:32.330Z,35.03
2018-07-27T12:56:59.592Z,34.81
2018-07-27T12:59:26.723Z,34.74
2018-07-27T13:01:54.754Z,34.62
2018-07-27T13:04:26.234Z,35.37
2018-07-27T13:06:53.415Z,35.21
2018-07-27T13:09:21.531Z,35.49
2018-07-27T13:11:50.233Z,35.43
2018-07-27T13:14:23.640Z,35.60
2018-07-27T13:16:50.818Z,35.84
2018-07-27T13:19:17.915Z,35.45
2018-07-27T13:21:45.094Z,35.86
2018-07-27T13:24:12.138Z,35.79
2018-07-27T13:26:39.303Z,36.01
2018-07-27T13:29:06.494Z,35.84
2018-07-27T13:34:36.008Z,35.44
2018-07-27T13:37:04.278Z,35.14
2018-07-27T13:39:32.973Z,34.93
2018-07-27T13:42:04.034Z,35.90
2018-07-27T13:44:34.079Z,35.96
2018-07-27T13:47:01.659Z,36.60
2018-07-27T13:49:28.773Z,36.33
2018-07-27T13:51:56.367Z,36.61
2018-07-27T13:54:24.613Z,36.77
2018-07-27T13:56:54.691Z,36.78
2018-07-27T13:59:25.000Z,36.46
2018-07-27T14:01:55.112Z,36.26
2018-07-27T14:04:22.382Z,36.26
2018-07-27T14:06:51.056Z,36.63
2018-07-27T14:09:18.157Z,35.72
2018-07-27T14:11:45.587Z,35.64
2018-07-27T14:14:12.957Z,35.06
2018-07-27T14:16:40.773Z,35.23
2018-07-27T14:19:08.056Z,34.74
2018-07-27T14:21:38.257Z,34.60
2018-07-27T14:24:05.381Z,34.62
2018-07-27T14:26:33.482Z,35.07
2018-07-27T14:29:00.620Z,35.14
2018-07-27T14:31:27.854Z,35.50
2018-07-27T14:33:55.080Z,35.17
2018-07-27T14:36:23.208Z,35.29
2018-07-27T14:38:50.588Z,36.06
2018-07-27T14:41:18.158Z,35.71
2018-07-27T14:43:45.308Z,35.85
2018-07-27T14:46:12.445Z,35.84
2018-07-27T14:48:39.727Z,35.14
2018-07-27T14:51:08.097Z,35.49
2018-07-27T14:53:35.770Z,35.57
2018-07-27T14:56:03.234Z,35.73
2018-07-27T14:58:33.594Z,36.09
2018-07-27T15:01:00.715Z,36.97
2018-07-27T15:03:28.826Z,38.01
2018-07-27T15:05:56.955Z,38.56
2018-07-27T15:08:27.978Z,38.45
2018-07-27T15:10:55.228Z,39.81
2018-07-27T15:13:22.452Z,40.28
2018-07-27T15:15:51.495Z,40.01
2018-07-27T15:18:20.348Z,40.75
2018-07-27T15:20:47.592Z,41.18
2018-07-27T15:23:25.782Z,41.30
2018-07-27T15:25:55.995Z,41.04
2018-07-27T15:28:23.232Z,41.26
2018-07-27T15:30:50.599Z,41.48
2018-07-27T15:33:17.810Z,42.47
2018-07-27T15:35:44.988Z,42.83
2018-07-27T15:38:13.151Z,42.42
2018-07-27T15:40:41.287Z,43.26
2018-07-27T15:43:09.449Z,42.84
2018-07-27T15:45:36.624Z,43.60
2018-07-27T15:48:03.818Z,43.29
2018-07-27T15:50:31.968Z,43.76
2018-07-27T15:52:59.974Z,43.94
2018-07-27T15:55:30.200Z,43.69
2018-07-27T15:57:57.955Z,44.50
2018-07-27T16:00:25.233Z,43.04
2018-07-27T16:02:52.493Z,43.21
2018-07-27T16:05:20.873Z,40.79
2018-07-27T16:07:48.103Z,38.56
2018-07-27T16:10:15.349Z,38.64
2018-07-27T16:12:42.806Z,39.73
2018-07-27T16:15:12.040Z,41.72
2018-07-27T16:17:39.912Z,42.14
2018-07-27T16:20:07.115Z,42.96
2018-07-27T16:22:34.397Z,44.40
2018-07-27T16:25:01.844Z,45.46
2018-07-27T16:27:30.280Z,44.90
2018-07-27T16:29:57.496Z,43.97
2018-07-27T16:32:24.794Z,43.66
2018-07-27T16:34:51.893Z,43.13
2018-07-27T16:37:19.916Z,43.10
2018-07-27T16:39:47.146Z,43.59
2018-07-27T16:42:14.453Z,44.39
2018-07-27T16:44:41.649Z,43.44
2018-07-27T16:47:08.834Z,43.19
2018-07-27T16:49:36.997Z,44.68
2018-07-27T16:52:04.135Z,43.51
2018-07-27T16:54:32.203Z,43.82
2018-07-27T16:56:59.348Z,44.16
2018-07-27T16:59:26.515Z,43.85
2018-07-27T17:01:53.749Z,43.88
2018-07-27T17:04:20.891Z,44.35
2018-07-27T17:06:48.307Z,44.14
2018-07-27T17:09:15.481Z,45.30
2018-07-27T17:11:42.562Z,44.09
2018-07-27T17:14:09.757Z,44.65
2018-07-27T17:16:37.032Z,44.63
2018-07-27T17:19:06.059Z,45.06
2018-07-27T17:21:34.141Z,44.55
2018-07-27T17:24:01.267Z,44.08
2018-07-27T17:26:28.984Z,44.47
2018-07-27T17:28:56.112Z,43.79
2018-07-27T17:31:24.339Z,44.45
2018-07-27T17:33:53.055Z,44.77
2018-07-27T17:36:20.315Z,44.23
2018-07-27T17:38:48.084Z,44.17
2018-07-27T17:41:15.937Z,44.30
2018-07-27T17:43:43.069Z,44.26
2018-07-27T17:46:10.257Z,43.81
2018-07-27T17:48:37.472Z,45.45
2018-07-27T17:51:07.740Z,44.42
2018-07-27T17:53:35.025Z,44.57
2018-07-27T17:56:02.308Z,44.51
2018-07-27T17:58:29.494Z,44.52
2018-07-27T18:00:56.605Z,44.33
2018-07-27T18:03:23.816Z,45.35
2018-07-27T18:05:50.989Z,45.34
2018-07-27T18:08:18.183Z,44.94
2018-07-27T18:10:45.419Z,44.34
2018-07-27T18:13:12.677Z,42.59
2018-07-27T18:15:40.184Z,40.63
2018-07-27T18:18:07.374Z,39.09
2018-07-27T18:20:34.447Z,37.57
2018-07-27T18:23:01.657Z,36.17
2018-07-27T18:25:35.260Z,36.98
2018-07-27T18:28:02.416Z,34.87
2018-07-27T18:30:29.653Z,35.51
2018-07-27T18:32:56.640Z,33.82
2018-07-27T18:35:23.844Z,34.36
2018-07-27T18:37:52.062Z,32.91
2018-07-27T18:40:20.208Z,32.28
2018-07-27T18:42:47.378Z,33.03
2018-07-27T18:45:15.572Z,32.77
2018-07-27T18:47:42.673Z,32.53
2018-07-27T18:50:11.941Z,31.11
2018-07-27T18:52:45.367Z,30.33
2018-07-27T18:55:13.462Z,29.91
2018-07-27T18:57:40.613Z,30.62
2018-07-27T19:00:07.827Z,30.51
2018-07-27T19:02:34.961Z,29.47
2018-07-27T19:05:05.309Z,30.03
2018-07-27T19:07:36.524Z,29.09
2018-07-27T19:10:04.567Z,28.62
2018-07-27T19:12:35.108Z,28.37
2018-07-27T19:15:08.960Z,28.06
2018-07-27T19:17:36.447Z,28.43
2018-07-27T19:20:04.452Z,27.59
2018-07-27T19:22:31.537Z,27.21
2018-07-27T19:25:02.705Z,26.84
2018-07-27T19:27:30.499Z,26.51
2018-07-27T19:29:57.743Z,26.52
2018-07-27T19:32:25.498Z,26.34
2018-07-27T19:34:53.630Z,27.08
2018-07-27T19:37:22.612Z,26.40
2018-07-27T19:39:49.770Z,26.85
2018-07-27T19:42:17.970Z,26.89
2018-07-27T19:44:49.094Z,26.06
2018-07-27T19:47:20.073Z,25.75
2018-07-27T19:49:47.165Z,25.53
2018-07-27T19:52:17.289Z,25.50
2018-07-27T19:54:44.325Z,25.44
2018-07-27T19:57:11.413Z,25.36
2018-07-27T19:59:39.819Z,25.20
2018-07-27T20:02:08.651Z,25.04
2018-07-27T20:04:35.874Z,25.76
2018-07-27T20:07:06.700Z,25.23
2018-07-27T20:09:34.628Z,25.37
2018-07-27T20:12:06.581Z,25.23
2018-07-27T20:14:35.695Z,25.59
2018-07-27T20:17:02.951Z,25.13
2018-07-27T20:19:30.983Z,24.86
2018-07-27T20:22:00.008Z,24.73
2018-07-27T20:24:31.790Z,24.53
2018-07-27T20:26:59.056Z,25.13
2018-07-27T20:29:26.274Z,25.25
2018-07-27T20:31:53.545Z,24.92
2018-07-27T20:34:21.477Z,25.45
2018-07-27T20:36:48.589Z,25.10
2018-07-27T20:39:16.451Z,25.10
2018-07-27T20:41:44.367Z,25.52
2018-07-27T20:44:11.748Z,24.61
2018-07-27T20:46:40.653Z,24.22
2018-07-27T20:49:08.315Z,24.23
2018-07-27T20:51:35.554Z,24.37
2018-07-27T20:54:05.020Z,24.80
2018-07-27T20:56:32.237Z,24.14
2018-07-27T20:58:59.344Z,23.86
2018-07-27T21:01:26.472Z,23.75
2018-07-27T21:03:53.552Z,23.48
2018-07-27T21:06:20.719Z,23.43
2018-07-27T21:08:48.457Z,23.95
2018-07-27T21:11:15.702Z,23.50
2018-07-27T21:13:42.900Z,23.93
2018-07-27T21:16:11.565Z,23.40
2018-07-27T21:18:39.713Z,24.02
2018-07-27T21:21:07.527Z,23.64
2018-07-27T21:23:34.625Z,23.50
2018-07-27T21:26:02.521Z,23.60
2018-07-27T21:28:29.573Z,23.94
2018-07-27T21:30:57.539Z,23.55
2018-07-27T21:33:25.200Z,23.48
2018-07-27T21:35:55.330Z,23.51
2018-07-27T21:38:22.345Z,23.57
2018-07-27T21:40:49.488Z,23.44
2018-07-27T21:43:16.517Z,23.34
2018-07-27T21:45:43.656Z,23.16
2018-07-27T21:48:10.674Z,23.12
2018-07-27T21:50:38.723Z,23.06
2018-07-27T21:53:05.896Z,23.05
2018-07-27T21:55:33.011Z,23.65
2018-07-27T21:58:00.177Z,23.26
2018-07-27T22:00:27.295Z,23.41
2018-07-27T22:02:54.452Z,23.50
2018-07-27T22:05:23.080Z,23.37
2018-07-27T22:07:53.458Z,23.17
2018-07-27T22:10:20.585Z,23.12
2018-07-27T22:12:47.758Z,23.22
2018-07-27T22:15:23.422Z,23.26
2018-07-27T22:17:53.530Z,23.21
2018-07-27T22:20:21.913Z,23.24
2018-07-27T22:22:49.619Z,23.26
2018-07-27T22:25:19.723Z,23.12
2018-07-27T22:27:52.141Z,23.14
2018-07-27T22:30:24.175Z,23.26
2018-07-27T22:32:54.115Z,23.71
2018-07-27T22:35:21.229Z,23.14
2018-07-27T22:37:53.087Z,22.99
2018-07-27T22:40:22.629Z,23.08
2018-07-27T22:42:49.680Z,22.87
2018-07-27T22:45:16.783Z,22.86
2018-07-27T22:47:43.841Z,22.60
2018-07-27T22:50:12.980Z,22.18
2018-07-27T22:52:44.015Z,22.20
2018-07-27T22:55:14.069Z,22.01
2018-07-27T22:57:49.495Z,21.37
2018-07-27T23:00:21.608Z,21.15
2018-07-27T23:02:48.624Z,21.14
2018-07-27T23:05:15.674Z,21.12
2018-07-27T23:07:42.775Z,21.19
2018-07-27T23:10:10.370Z,21.23
2018-07-27T23:12:39.788Z,21.16
2018-07-27T23:15:08.534Z,21.12
2018-07-27T23:17:35.715Z,21.13
2018-07-27T23:20:04.448Z,21.01
2018-07-27T23:22:31.529Z,20.91
2018-07-27T23:24:58.589Z,21.15
2018-07-27T23:27:25.701Z,21.36
2018-07-27T23:29:53.838Z,21.29
2018-07-27T23:32:22.661Z,21.30
2018-07-27T23:34:54.587Z,21.28
2018-07-27T23:37:24.713Z,21.15
2018-07-27T23:39:51.817Z,21.14
2018-07-27T23:42:19.320Z,21.28
2018-07-27T23:44:47.143Z,21.28
2018-07-27T23:47:16.873Z,21.75
2018-07-27T23:49:43.885Z,21.07
2018-07-27T23:52:11.614Z,21.37
2018-07-27T23:54:39.710Z,21.51
2018-07-27T23:57:10.664Z,21.40
2018-07-27T23:59:38.753Z,21.30
